createdAt,value
2022-12-12T00:00:34.121Z,-2.60
2022-12-12T00:03:00.732Z,-2.70
2022-12-12T00:05:27.408Z,-2.70
2022-12-12T00:07:54.011Z,-2.80
2022-12-12T00:10:20.677Z,-2.90
2022-12-12T00:12:47.224Z,-2.90
2022-12-12T00:15:14.171Z,-2.90
2022-12-12T00:17:40.987Z,-2.90
2022-12-12T00:20:07.643Z,-3.00
2022-12-12T00:22:34.179Z,-3.00
2022-12-12T00:25:00.774Z,-3.00
2022-12-12T00:27:27.328Z,-3.10
2022-12-12T00:29:54.313Z,-3.10
2022-12-12T00:32:20.931Z,-3.10
2022-12-12T00:34:47.663Z,-3.20
2022-12-12T00:37:14.219Z,-3.20
2022-12-12T00:39:40.833Z,-3.20
2022-12-12T00:42:07.444Z,-3.30
2022-12-12T00:44:34.360Z,-3.30
2022-12-12T00:47:01.080Z,-3.30
2022-12-12T00:49:27.620Z,-3.30
2022-12-12T00:51:54.304Z,-3.40
2022-12-12T00:54:20.863Z,-3.40
2022-12-12T00:56:47.418Z,-3.50
2022-12-12T00:59:14.977Z,-3.60
2022-12-12T01:01:41.602Z,-3.50
2022-12-12T01:04:08.169Z,-3.60
2022-12-12T01:06:34.776Z,-3.60
2022-12-12T01:09:01.934Z,-3.60
2022-12-12T01:11:28.603Z,-3.70
2022-12-12T01:13:55.201Z,-3.70
2022-12-12T01:16:21.867Z,-3.80
2022-12-12T01:18:48.489Z,-3.80
2022-12-12T01:21:16.137Z,-3.90
2022-12-12T01:23:42.734Z,-3.90
2022-12-12T01:26:13.417Z,-4.00
2022-12-12T01:28:39.996Z,-4.00
2022-12-12T01:31:06.716Z,-4.00
2022-12-12T01:33:33.289Z,-4.10
2022-12-12T01:36:00.060Z,-4.10
2022-12-12T01:38:26.727Z,-4.10
2022-12-12T01:40:53.336Z,-4.10
2022-12-12T01:43:20.203Z,-4.20
2022-12-12T01:45:53.060Z,-4.20
2022-12-12T01:48:20.056Z,-4.30
2022-12-12T01:50:46.641Z,-4.30
2022-12-12T01:53:13.384Z,-4.30
2022-12-12T01:55:39.924Z,-4.30
2022-12-12T01:58:06.496Z,-4.40
2022-12-12T02:00:33.124Z,-4.30
2022-12-12T02:02:59.911Z,-4.30
2022-12-12T02:05:39.692Z,-4.30
2022-12-12T02:08:06.654Z,-4.30
2022-12-12T02:10:33.244Z,-4.30
2022-12-12T02:13:02.372Z,-4.30
2022-12-12T02:15:29.812Z,-4.30
2022-12-12T02:18:12.794Z,-4.30
2022-12-12T02:20:53.985Z,-4.40
2022-12-12T02:23:35.885Z,-4.50
2022-12-12T02:26:21.224Z,-4.50
2022-12-12T02:28:56.951Z,-4.50
2022-12-12T02:31:27.426Z,-4.50
2022-12-12T02:33:59.068Z,-4.60
2022-12-12T02:36:36.991Z,-4.60
2022-12-12T02:39:07.020Z,-4.60
2022-12-12T02:41:43.883Z,-4.70
2022-12-12T02:44:30.382Z,-4.70
2022-12-12T02:47:07.976Z,-4.80
2022-12-12T02:49:53.426Z,-4.80
2022-12-12T02:52:20.279Z,-4.80
2022-12-12T02:54:48.499Z,-4.80
2022-12-12T02:57:19.300Z,-4.80
2022-12-12T02:59:50.656Z,-4.90
2022-12-12T03:02:25.160Z,-4.90
2022-12-12T03:05:14.082Z,-5.00
2022-12-12T03:07:50.193Z,-5.00
2022-12-12T03:10:27.026Z,-5.00
2022-12-12T03:13:00.548Z,-5.00
2022-12-12T03:15:33.611Z,-5.00
2022-12-12T03:18:12.367Z,-4.90
2022-12-12T03:20:44.984Z,-5.00
2022-12-12T03:23:15.137Z,-5.10
2022-12-12T03:25:44.659Z,-5.10
2022-12-12T03:28:25.327Z,-5.10
2022-12-12T03:30:52.701Z,-5.20
2022-12-12T03:33:20.449Z,-5.20
2022-12-12T03:35:47.961Z,-5.20
2022-12-12T03:38:16.524Z,-5.30
2022-12-12T03:41:01.803Z,-5.30
2022-12-12T03:43:29.740Z,-5.30
2022-12-12T03:46:03.071Z,-5.30
2022-12-12T03:48:30.624Z,-5.30
2022-12-12T03:51:09.694Z,-5.40
2022-12-12T03:53:44.855Z,-5.40
2022-12-12T03:56:14.409Z,-5.40
2022-12-12T03:58:41.041Z,-5.40
2022-12-12T04:01:08.333Z,-5.40
2022-12-12T04:03:39.165Z,-5.40
2022-12-12T04:06:28.334Z,-5.40
2022-12-12T04:09:14.645Z,-5.40
2022-12-12T04:12:02.481Z,-5.50
2022-12-12T04:14:42.150Z,-5.60
2022-12-12T04:17:09.713Z,-5.60
2022-12-12T04:19:56.237Z,-5.60
2022-12-12T04:22:41.632Z,-5.70
2022-12-12T04:25:11.285Z,-5.70
2022-12-12T04:27:39.739Z,-5.70
2022-12-12T04:30:07.840Z,-5.70
2022-12-12T04:32:38.276Z,-5.70
2022-12-12T04:35:06.067Z,-5.70
2022-12-12T04:37:34.768Z,-5.70
2022-12-12T04:40:01.878Z,-5.70
2022-12-12T04:42:29.740Z,-5.70
2022-12-12T04:44:58.210Z,-5.70
2022-12-12T04:47:24.788Z,-5.70
2022-12-12T04:49:51.335Z,-5.70
2022-12-12T04:52:18.008Z,-5.70
2022-12-12T04:55:17.384Z,-5.70
2022-12-12T04:57:48.415Z,-5.70
2022-12-12T05:00:15.086Z,-5.70
2022-12-12T05:02:44.983Z,-5.70
2022-12-12T05:05:28.346Z,-5.70
2022-12-12T05:07:56.111Z,-5.70
2022-12-12T05:10:22.670Z,-5.70
2022-12-12T05:12:50.711Z,-5.70
2022-12-12T05:15:17.759Z,-5.70
2022-12-12T05:18:17.032Z,-5.80
2022-12-12T05:20:43.692Z,-5.80
2022-12-12T05:23:10.294Z,-5.80
2022-12-12T05:25:36.888Z,-5.90
2022-12-12T05:28:03.457Z,-5.90
2022-12-12T05:30:30.152Z,-5.90
2022-12-12T05:32:56.880Z,-6.00
2022-12-12T05:35:23.519Z,-6.00
2022-12-12T05:37:52.127Z,-6.00
2022-12-12T05:40:18.904Z,-6.00
2022-12-12T05:42:45.512Z,-6.10
2022-12-12T05:45:12.373Z,-6.10
2022-12-12T05:47:39.378Z,-6.10
2022-12-12T05:50:06.247Z,-6.10
2022-12-12T05:52:32.921Z,-6.10
2022-12-12T05:54:59.467Z,-6.20
2022-12-12T05:57:25.994Z,-6.20
2022-12-12T05:59:52.552Z,-6.20
2022-12-12T06:02:19.328Z,-6.30
2022-12-12T06:04:45.968Z,-6.30
2022-12-12T06:07:12.512Z,-6.30
2022-12-12T06:09:39.091Z,-6.20
2022-12-12T06:12:05.723Z,-6.30
2022-12-12T06:14:32.300Z,-6.30
2022-12-12T06:16:58.984Z,-6.40
2022-12-12T06:19:25.550Z,-6.40
2022-12-12T06:21:52.162Z,-6.40
2022-12-12T06:24:18.792Z,-6.40
2022-12-12T06:26:45.338Z,-6.30
2022-12-12T06:29:12.157Z,-6.30
2022-12-12T06:31:38.766Z,-6.40
2022-12-12T06:34:05.358Z,-6.40
2022-12-12T06:36:31.906Z,-6.40
2022-12-12T06:38:58.967Z,-6.30
2022-12-12T06:41:25.825Z,-6.40
2022-12-12T06:43:52.451Z,-5.90
2022-12-12T06:46:19.955Z,-5.70
2022-12-12T06:48:46.608Z,-5.60
2022-12-12T06:51:14.411Z,-5.50
2022-12-12T06:53:40.968Z,-5.60
2022-12-12T06:56:08.169Z,-5.70
2022-12-12T06:58:34.778Z,-5.90
2022-12-12T07:01:01.357Z,-6.10
2022-12-12T07:03:27.957Z,-6.20
2022-12-12T07:05:54.534Z,-6.30
2022-12-12T07:08:21.332Z,-6.40
2022-12-12T07:10:47.943Z,-6.40
2022-12-12T07:13:14.604Z,-6.40
2022-12-12T07:15:44.848Z,-6.30
2022-12-12T07:18:11.606Z,-6.40
2022-12-12T07:20:38.993Z,-6.40
2022-12-12T07:23:05.551Z,-6.40
2022-12-12T07:25:32.134Z,-6.40
2022-12-12T07:27:58.686Z,-6.30
2022-12-12T07:30:25.276Z,-6.30
2022-12-12T07:32:51.897Z,-6.40
2022-12-12T07:35:18.506Z,-6.40
2022-12-12T07:37:45.041Z,-6.20
2022-12-12T07:40:12.430Z,-6.10
2022-12-12T07:42:39.121Z,-5.90
2022-12-12T07:45:05.974Z,-5.90
2022-12-12T07:47:32.575Z,-5.90
2022-12-12T07:49:59.138Z,-6.00
2022-12-12T07:52:25.680Z,-6.00
2022-12-12T07:54:52.429Z,-5.80
2022-12-12T07:57:18.966Z,-5.70
2022-12-12T07:59:45.556Z,-5.50
2022-12-12T08:02:12.156Z,-5.40
2022-12-12T08:04:38.845Z,-5.30
2022-12-12T08:07:08.435Z,-5.30
2022-12-12T08:09:36.204Z,-5.50
2022-12-12T08:12:02.788Z,-5.60
2022-12-12T08:14:29.380Z,-5.60
2022-12-12T08:16:56.255Z,-5.70
2022-12-12T08:19:23.006Z,-5.60
2022-12-12T08:21:49.642Z,-5.40
2022-12-12T08:24:16.297Z,-5.30
2022-12-12T08:26:42.992Z,-5.10
2022-12-12T08:29:09.874Z,-5.00
2022-12-12T08:31:37.430Z,-4.90
2022-12-12T08:34:04.054Z,-4.80
2022-12-12T08:36:31.227Z,-4.70
2022-12-12T08:39:04.191Z,-4.60
2022-12-12T08:41:30.728Z,-4.40
2022-12-12T08:43:57.294Z,-4.20
2022-12-12T08:46:23.880Z,-4.10
2022-12-12T08:48:50.494Z,-4.20
2022-12-12T08:51:17.163Z,-4.10
2022-12-12T08:53:44.782Z,-4.10
2022-12-12T08:56:11.616Z,-4.10
2022-12-12T08:58:38.200Z,-3.90
2022-12-12T09:01:09.461Z,-3.90
2022-12-12T09:03:36.004Z,-3.70
2022-12-12T09:06:02.689Z,-3.60
2022-12-12T09:08:29.262Z,-3.50
2022-12-12T09:10:55.897Z,-3.50
2022-12-12T09:13:22.449Z,-3.40
2022-12-12T09:15:52.299Z,-3.40
2022-12-12T09:18:19.441Z,-3.30
2022-12-12T09:20:49.769Z,-3.20
2022-12-12T09:23:16.498Z,-3.10
2022-12-12T09:25:43.064Z,-3.00
2022-12-12T09:28:11.113Z,-3.00
2022-12-12T09:30:38.139Z,-2.90
2022-12-12T09:33:04.717Z,-2.70
2022-12-12T09:35:31.280Z,-2.60
2022-12-12T09:37:57.811Z,-2.60
2022-12-12T09:40:29.520Z,-2.40
2022-12-12T09:42:56.264Z,-2.40
2022-12-12T09:45:22.866Z,-2.30
2022-12-12T09:47:56.926Z,-2.20
2022-12-12T09:50:25.455Z,-2.10
2022-12-12T09:52:52.596Z,-2.10
2022-12-12T09:55:39.009Z,-2.10
2022-12-12T09:58:07.613Z,-2.00
2022-12-12T10:00:35.457Z,-1.90
2022-12-12T10:03:05.235Z,-2.00
2022-12-12T10:05:42.239Z,-1.90
2022-12-12T10:08:19.537Z,-1.90
2022-12-12T10:10:47.771Z,-1.80
2022-12-12T10:13:24.977Z,-1.70
2022-12-12T10:15:52.520Z,-1.60
2022-12-12T10:18:26.943Z,-1.50
2022-12-12T10:20:55.505Z,-1.50
2022-12-12T10:23:40.999Z,-1.50
2022-12-12T10:26:08.785Z,-1.40
2022-12-12T10:28:35.531Z,-1.30
2022-12-12T10:31:20.915Z,-1.40
2022-12-12T10:33:47.477Z,-1.30
2022-12-12T10:36:20.295Z,-1.40
2022-12-12T10:38:53.843Z,-1.40
2022-12-12T10:41:23.899Z,-1.20
2022-12-12T10:43:56.035Z,-1.00
2022-12-12T10:46:25.157Z,-0.90
2022-12-12T10:48:51.816Z,-1.00
2022-12-12T10:51:18.897Z,-1.00
2022-12-12T10:53:45.722Z,-1.00
2022-12-12T10:56:22.429Z,-0.90
2022-12-12T10:58:58.538Z,-0.80
2022-12-12T11:02:00.700Z,-0.70
2022-12-12T11:04:17.031Z,-0.50
2022-12-12T11:06:47.474Z,-0.40
2022-12-12T11:09:18.085Z,-0.50
2022-12-12T11:12:00.996Z,-0.50
2022-12-12T11:14:35.444Z,-0.40
2022-12-12T11:17:02.189Z,-0.60
2022-12-12T11:19:35.801Z,-0.60
2022-12-12T11:22:02.752Z,-0.50
2022-12-12T11:24:30.203Z,-0.50
2022-12-12T11:27:06.462Z,-0.70
2022-12-12T11:29:32.983Z,-0.70
2022-12-12T11:31:59.715Z,-0.60
2022-12-12T11:34:26.321Z,-0.60
2022-12-12T11:36:53.090Z,-0.60
2022-12-12T11:39:23.701Z,-0.60
2022-12-12T11:42:04.649Z,-0.70
2022-12-12T11:44:32.899Z,-0.80
2022-12-12T11:47:15.157Z,-0.80
2022-12-12T11:49:48.647Z,-0.80
2022-12-12T11:52:33.543Z,-0.70
2022-12-12T11:55:00.204Z,-0.80
2022-12-12T11:57:45.537Z,-0.70
2022-12-12T12:00:32.803Z,-0.60
2022-12-12T12:03:05.780Z,-0.80
2022-12-12T12:05:35.689Z,-0.80
2022-12-12T12:08:11.308Z,-0.90
2022-12-12T12:10:53.420Z,-0.90
2022-12-12T12:13:27.975Z,-1.10
2022-12-12T12:15:54.701Z,-1.20
2022-12-12T12:18:36.283Z,-1.10
2022-12-12T12:21:06.398Z,-1.10
2022-12-12T12:23:37.638Z,-1.00
2022-12-12T12:26:07.435Z,-0.90
2022-12-12T12:28:41.253Z,-0.90
2022-12-12T12:31:11.138Z,-0.90
2022-12-12T12:33:50.210Z,-0.90
2022-12-12T12:36:21.436Z,-1.00
2022-12-12T12:38:48.192Z,-0.90
2022-12-12T12:41:20.852Z,-1.00
2022-12-12T12:43:47.382Z,-1.00
2022-12-12T12:46:17.094Z,-1.20
2022-12-12T12:48:44.727Z,-1.10
2022-12-12T12:51:19.499Z,-1.00
2022-12-12T12:53:51.272Z,-1.00
2022-12-12T12:56:26.660Z,-1.00
2022-12-12T12:58:54.765Z,-1.00
2022-12-12T13:01:23.526Z,-0.90
2022-12-12T13:03:51.493Z,-0.90
2022-12-12T13:06:19.183Z,-0.90
2022-12-12T13:08:59.465Z,-1.00
2022-12-12T13:11:36.629Z,-1.10
2022-12-12T13:14:13.518Z,-1.00
2022-12-12T13:16:40.084Z,-1.00
2022-12-12T13:19:11.106Z,-1.00
2022-12-12T13:21:49.350Z,-1.10
2022-12-12T13:24:22.039Z,-1.10
2022-12-12T13:27:01.389Z,-1.10
2022-12-12T13:29:30.501Z,-1.20
2022-12-12T13:32:16.003Z,-1.20
2022-12-12T13:34:44.111Z,-1.20
2022-12-12T13:37:14.354Z,-1.30
2022-12-12T13:39:40.920Z,-1.30
2022-12-12T13:42:08.206Z,-1.30
2022-12-12T13:44:42.176Z,-1.30
2022-12-12T13:47:17.752Z,-1.20
2022-12-12T13:49:45.945Z,-1.20
2022-12-12T13:52:21.603Z,-1.20
2022-12-12T13:54:48.264Z,-1.20
2022-12-12T13:57:20.704Z,-1.30
2022-12-12T13:59:53.341Z,-1.40
2022-12-12T14:02:25.531Z,-1.40
2022-12-12T14:05:10.931Z,-1.50
2022-12-12T14:07:37.705Z,-1.50
2022-12-12T14:10:37.426Z,-1.60
2022-12-12T14:13:22.282Z,-1.70
2022-12-12T14:15:49.697Z,-1.70
2022-12-12T14:18:33.430Z,-1.90
2022-12-12T14:21:04.928Z,-1.90
2022-12-12T14:23:35.520Z,-2.00
2022-12-12T14:26:02.361Z,-2.10
2022-12-12T14:28:29.654Z,-2.10
2022-12-12T14:31:11.629Z,-2.20
2022-12-12T14:33:41.239Z,-2.30
2022-12-12T14:36:23.120Z,-2.40
2022-12-12T14:39:01.887Z,-2.50
2022-12-12T14:41:31.208Z,-2.60
2022-12-12T14:44:36.617Z,-2.80
2022-12-12T14:46:44.531Z,-2.90
2022-12-12T14:49:12.636Z,-2.90
2022-12-12T14:51:40.254Z,-3.00
2022-12-12T14:54:10.543Z,-3.10
2022-12-12T14:56:52.958Z,-3.10
2022-12-12T14:59:25.959Z,-3.20
2022-12-12T15:01:54.106Z,-3.20
2022-12-12T15:04:25.598Z,-3.30
2022-12-12T15:06:52.628Z,-3.30
2022-12-12T15:09:19.206Z,-3.40
2022-12-12T15:11:46.520Z,-3.50
2022-12-12T15:14:20.371Z,-3.50
2022-12-12T15:16:48.691Z,-3.60
2022-12-12T15:19:16.800Z,-3.70
2022-12-12T15:21:43.635Z,-3.80
2022-12-12T15:24:17.331Z,-3.80
2022-12-12T15:26:44.713Z,-4.00
2022-12-12T15:29:15.424Z,-4.10
2022-12-12T15:31:48.269Z,-4.20
2022-12-12T15:34:31.339Z,-4.20
2022-12-12T15:37:10.258Z,-4.30
2022-12-12T15:39:36.964Z,-4.40
2022-12-12T15:42:03.817Z,-4.50
2022-12-12T15:44:30.437Z,-4.50
2022-12-12T15:46:57.152Z,-4.50
2022-12-12T15:49:39.710Z,-4.60
2022-12-12T15:52:10.671Z,-4.50
2022-12-12T15:54:37.214Z,-4.50
2022-12-12T15:57:03.844Z,-4.50
2022-12-12T15:59:31.819Z,-4.50
2022-12-12T16:02:13.079Z,-4.50
2022-12-12T16:04:39.757Z,-4.40
2022-12-12T16:07:21.091Z,-4.40
2022-12-12T16:10:00.714Z,-4.30
2022-12-12T16:12:46.146Z,-4.30
2022-12-12T16:15:19.588Z,-4.30
2022-12-12T16:17:59.156Z,-4.30
2022-12-12T16:20:30.257Z,-4.30
2022-12-12T16:23:07.544Z,-4.20
2022-12-12T16:25:34.317Z,-4.10
2022-12-12T16:28:09.631Z,-4.10
2022-12-12T16:30:36.878Z,-4.10
2022-12-12T16:33:20.341Z,-4.00
2022-12-12T16:35:47.076Z,-3.90
2022-12-12T16:38:14.603Z,-3.80
2022-12-12T16:40:41.857Z,-3.70
2022-12-12T16:43:15.192Z,-3.50
2022-12-12T16:45:41.881Z,-3.60
2022-12-12T16:48:19.116Z,-3.60
2022-12-12T16:50:45.934Z,-3.70
2022-12-12T16:53:12.483Z,-3.70
2022-12-12T16:55:43.139Z,-3.70
2022-12-12T16:58:09.943Z,-3.70
2022-12-12T17:00:36.688Z,-3.70
2022-12-12T17:03:03.538Z,-3.70
2022-12-12T17:05:30.475Z,-3.60
2022-12-12T17:07:57.086Z,-3.50
2022-12-12T17:10:26.642Z,-3.70
2022-12-12T17:12:53.580Z,-3.60
2022-12-12T17:15:21.515Z,-3.70
2022-12-12T17:17:48.071Z,-3.70
2022-12-12T17:20:14.856Z,-3.70
2022-12-12T17:22:42.151Z,-3.60
2022-12-12T17:25:08.790Z,-3.60
2022-12-12T17:27:35.677Z,-3.60
2022-12-12T17:30:02.230Z,-3.70
2022-12-12T17:32:30.210Z,-3.70
2022-12-12T17:34:56.792Z,-3.70
2022-12-12T17:37:24.371Z,-3.70
2022-12-12T17:39:51.129Z,-3.70
2022-12-12T17:42:18.020Z,-3.70
2022-12-12T17:44:44.561Z,-3.60
2022-12-12T17:47:11.348Z,-3.50
2022-12-12T17:49:37.899Z,-3.50
2022-12-12T17:52:04.586Z,-3.50
2022-12-12T17:54:31.204Z,-3.50
2022-12-12T17:56:57.764Z,-3.40
2022-12-12T17:59:24.310Z,-3.40
2022-12-12T18:01:53.963Z,-3.40
2022-12-12T18:04:27.947Z,-3.30
2022-12-12T18:06:55.236Z,-3.40
2022-12-12T18:09:21.903Z,-3.40
2022-12-12T18:11:48.535Z,-3.40
2022-12-12T18:14:19.387Z,-3.40
2022-12-12T18:16:51.159Z,-3.40
2022-12-12T18:19:18.574Z,-3.50
2022-12-12T18:22:00.853Z,-3.40
2022-12-12T18:24:29.992Z,-3.50
2022-12-12T18:26:57.430Z,-3.50
2022-12-12T18:29:24.177Z,-3.40
2022-12-12T18:31:50.811Z,-3.60
2022-12-12T18:34:20.090Z,-3.50
2022-12-12T18:36:46.975Z,-3.50
2022-12-12T18:39:13.643Z,-3.60
2022-12-12T18:41:40.196Z,-3.60
2022-12-12T18:44:07.387Z,-3.70
2022-12-12T18:46:40.275Z,-3.60
2022-12-12T18:49:09.533Z,-3.60
2022-12-12T18:51:36.458Z,-3.60
2022-12-12T18:54:06.091Z,-3.60
2022-12-12T18:56:35.739Z,-3.60
2022-12-12T18:59:02.325Z,-3.60
2022-12-12T19:01:29.997Z,-3.60
2022-12-12T19:03:57.028Z,-3.60
2022-12-12T19:06:33.942Z,-3.60
2022-12-12T19:09:20.839Z,-3.60
2022-12-12T19:11:47.567Z,-3.60
2022-12-12T19:14:14.830Z,-3.60
2022-12-12T19:16:41.886Z,-3.60
2022-12-12T19:19:12.107Z,-3.60
2022-12-12T19:21:38.838Z,-3.60
2022-12-12T19:24:09.050Z,-3.60
2022-12-12T19:26:35.739Z,-3.50
2022-12-12T19:29:03.574Z,-3.50
2022-12-12T19:31:33.307Z,-3.50
2022-12-12T19:34:00.145Z,-3.40
2022-12-12T19:36:26.971Z,-3.50
2022-12-12T19:38:53.615Z,-3.50
2022-12-12T19:41:20.606Z,-3.50
2022-12-12T19:43:47.393Z,-3.50
2022-12-12T19:46:21.022Z,-3.50
2022-12-12T19:48:48.290Z,-3.50
2022-12-12T19:51:15.894Z,-3.60
2022-12-12T19:53:43.871Z,-3.60
2022-12-12T19:56:14.180Z,-3.70
2022-12-12T19:58:41.436Z,-3.60
2022-12-12T20:01:08.889Z,-3.70
2022-12-12T20:03:35.498Z,-3.70
2022-12-12T20:06:02.538Z,-3.70
2022-12-12T20:08:29.980Z,-3.70
2022-12-12T20:10:57.169Z,-3.70
2022-12-12T20:13:23.776Z,-3.70
2022-12-12T20:15:50.417Z,-3.70
2022-12-12T20:18:17.068Z,-3.70
2022-12-12T20:20:43.617Z,-3.70
2022-12-12T20:23:10.254Z,-3.80
2022-12-12T20:25:39.385Z,-3.70
2022-12-12T20:28:05.961Z,-3.70
2022-12-12T20:30:32.571Z,-3.70
2022-12-12T20:32:59.293Z,-3.70
2022-12-12T20:35:26.088Z,-3.70
2022-12-12T20:37:52.800Z,-3.70
2022-12-12T20:40:19.366Z,-3.70
2022-12-12T20:42:51.778Z,-3.80
2022-12-12T20:45:21.583Z,-3.70
2022-12-12T20:47:48.139Z,-3.70
2022-12-12T20:50:14.797Z,-3.70
2022-12-12T20:52:41.406Z,-3.70
2022-12-12T20:55:08.809Z,-3.70
2022-12-12T20:57:35.373Z,-3.70
2022-12-12T21:00:02.981Z,-3.70
2022-12-12T21:02:30.445Z,-3.70
2022-12-12T21:04:57.339Z,-3.70
2022-12-12T21:07:23.893Z,-3.70
2022-12-12T21:09:50.455Z,-3.80
2022-12-12T21:12:17.199Z,-3.80
2022-12-12T21:14:43.742Z,-3.80
2022-12-12T21:17:10.287Z,-3.80
2022-12-12T21:19:36.854Z,-3.80
2022-12-12T21:22:04.042Z,-3.80
2022-12-12T21:24:31.238Z,-3.80
2022-12-12T21:26:57.991Z,-3.80
2022-12-12T21:29:24.614Z,-3.80
2022-12-12T21:31:52.552Z,-3.80
2022-12-12T21:34:20.323Z,-3.70
2022-12-12T21:36:49.179Z,-3.70
2022-12-12T21:39:15.803Z,-3.70
2022-12-12T21:41:43.820Z,-3.80
2022-12-12T21:44:10.556Z,-3.80
2022-12-12T21:46:39.217Z,-3.80
2022-12-12T21:49:24.647Z,-3.80
2022-12-12T21:51:51.337Z,-3.80
2022-12-12T21:54:18.118Z,-3.80
2022-12-12T21:56:44.657Z,-3.80
2022-12-12T21:59:11.705Z,-3.80
2022-12-12T22:01:38.342Z,-3.80
2022-12-12T22:04:04.950Z,-3.90
2022-12-12T22:06:32.904Z,-3.90
2022-12-12T22:08:59.933Z,-3.90
2022-12-12T22:11:47.559Z,-3.90
2022-12-12T22:14:14.675Z,-4.00
2022-12-12T22:16:41.257Z,-3.90
2022-12-12T22:19:08.542Z,-4.00
2022-12-12T22:21:35.265Z,-4.00
2022-12-12T22:24:01.916Z,-4.00
2022-12-12T22:26:29.735Z,-4.00
2022-12-12T22:28:57.544Z,-4.00
2022-12-12T22:31:26.224Z,-4.00
2022-12-12T22:33:56.985Z,-3.90
2022-12-12T22:36:33.449Z,-4.00
2022-12-12T22:39:00.497Z,-4.00
2022-12-12T22:41:27.333Z,-4.00
2022-12-12T22:43:54.692Z,-4.00
2022-12-12T22:46:21.640Z,-4.00
2022-12-12T22:48:48.308Z,-4.00
2022-12-12T22:51:15.603Z,-4.00
2022-12-12T22:53:44.387Z,-3.90
2022-12-12T22:56:11.567Z,-4.00
2022-12-12T22:58:38.490Z,-4.00
2022-12-12T23:01:11.984Z,-4.00
2022-12-12T23:03:38.768Z,-4.00
2022-12-12T23:06:29.451Z,-4.10
2022-12-12T23:09:06.358Z,-4.10
2022-12-12T23:11:33.125Z,-4.00
2022-12-12T23:14:04.153Z,-4.10
2022-12-12T23:16:31.156Z,-4.10
2022-12-12T23:18:58.511Z,-4.10
2022-12-12T23:21:25.165Z,-4.10
2022-12-12T23:23:51.885Z,-4.20
2022-12-12T23:26:19.715Z,-4.10
2022-12-12T23:28:46.341Z,-4.10
2022-12-12T23:31:14.743Z,-4.10
2022-12-12T23:33:41.403Z,-4.10
2022-12-12T23:36:08.496Z,-4.00
2022-12-12T23:38:36.500Z,-4.00
2022-12-12T23:41:06.581Z,-4.00
2022-12-12T23:43:33.325Z,-4.10
2022-12-12T23:46:32.407Z,-4.10
2022-12-12T23:48:59.083Z,-4.10
2022-12-12T23:51:26.185Z,-4.10
2022-12-12T23:53:55.134Z,-4.10
2022-12-12T23:56:21.788Z,-4.20
2022-12-12T23:58:48.374Z,-4.20
